sensor_id;sensor_type;location;lat;lon;timestamp;P1;durP1;ratioP1;P2;durP2;ratioP2
71462;SDS011;59266;52.608;13.260;2024-03-06T00:00:37;27.90;;;11.10;;
71462;SDS011;59266;52.608;13.260;2024-03-06T00:03:05;30.58;;;11.52;;
71462;SDS011;59266;52.608;13.260;2024-03-06T00:05:32;31.90;;;11.52;;
71462;SDS011;59266;52.608;13.260;2024-03-06T00:07:59;30.85;;;11.88;;
71462;SDS011;59266;52.608;13.260;2024-03-06T00:10:27;31.10;;;11.98;;
71462;SDS011;59266;52.608;13.260;2024-03-06T00:12:54;28.25;;;10.63;;
71462;SDS011;59266;52.608;13.260;2024-03-06T00:15:21;25.85;;;10.23;;
71462;SDS011;59266;52.608;13.260;2024-03-06T00:17:47;30.55;;;11.40;;
71462;SDS011;59266;52.608;13.260;2024-03-06T00:20:14;24.40;;;10.68;;
71462;SDS011;59266;52.608;13.260;2024-03-06T00:22:40;30.38;;;10.98;;
71462;SDS011;59266;52.608;13.260;2024-03-06T00:25:07;27.90;;;10.55;;
71462;SDS011;59266;52.608;13.260;2024-03-06T00:27:34;27.70;;;11.07;;
71462;SDS011;59266;52.608;13.260;2024-03-06T00:30:01;30.25;;;12.43;;
71462;SDS011;59266;52.608;13.260;2024-03-06T00:32:28;30.88;;;11.57;;
71462;SDS011;59266;52.608;13.260;2024-03-06T00:34:55;32.28;;;11.80;;
71462;SDS011;59266;52.608;13.260;2024-03-06T00:37:21;28.63;;;11.13;;
71462;SDS011;59266;52.608;13.260;2024-03-06T00:39:48;32.10;;;11.13;;
71462;SDS011;59266;52.608;13.260;2024-03-06T00:42:14;34.25;;;12.38;;
71462;SDS011;59266;52.608;13.260;2024-03-06T00:44:41;31.02;;;11.65;;
71462;SDS011;59266;52.608;13.260;2024-03-06T00:47:08;30.08;;;12.13;;
71462;SDS011;59266;52.608;13.260;2024-03-06T00:49:37;35.70;;;11.60;;
71462;SDS011;59266;52.608;13.260;2024-03-06T00:52:05;36.30;;;10.98;;
71462;SDS011;59266;52.608;13.260;2024-03-06T00:54:31;32.00;;;12.95;;
71462;SDS011;59266;52.608;13.260;2024-03-06T00:56:58;37.47;;;12.23;;
71462;SDS011;59266;52.608;13.260;2024-03-06T00:59:25;32.55;;;11.68;;
71462;SDS011;59266;52.608;13.260;2024-03-06T01:01:52;32.53;;;11.57;;
71462;SDS011;59266;52.608;13.260;2024-03-06T01:04:22;26.80;;;11.10;;
71462;SDS011;59266;52.608;13.260;2024-03-06T01:06:49;31.92;;;11.95;;
71462;SDS011;59266;52.608;13.260;2024-03-06T01:09:16;30.95;;;12.15;;
71462;SDS011;59266;52.608;13.260;2024-03-06T01:11:43;34.15;;;12.45;;
71462;SDS011;59266;52.608;13.260;2024-03-06T01:14:09;32.83;;;12.07;;
71462;SDS011;59266;52.608;13.260;2024-03-06T01:16:36;32.33;;;11.63;;
71462;SDS011;59266;52.608;13.260;2024-03-06T01:19:03;30.23;;;12.70;;
71462;SDS011;59266;52.608;13.260;2024-03-06T01:21:29;32.70;;;11.93;;
71462;SDS011;59266;52.608;13.260;2024-03-06T01:23:56;33.00;;;12.50;;
71462;SDS011;59266;52.608;13.260;2024-03-06T01:26:25;31.30;;;11.65;;
71462;SDS011;59266;52.608;13.260;2024-03-06T01:28:52;31.83;;;11.98;;
71462;SDS011;59266;52.608;13.260;2024-03-06T01:31:19;34.50;;;12.63;;
71462;SDS011;59266;52.608;13.260;2024-03-06T01:33:45;30.52;;;12.20;;
71462;SDS011;59266;52.608;13.260;2024-03-06T01:36:12;30.95;;;11.57;;
71462;SDS011;59266;52.608;13.260;2024-03-06T01:38:38;37.17;;;13.00;;
71462;SDS011;59266;52.608;13.260;2024-03-06T01:41:06;30.23;;;10.93;;
71462;SDS011;59266;52.608;13.260;2024-03-06T01:43:37;31.08;;;11.38;;
71462;SDS011;59266;52.608;13.260;2024-03-06T01:46:05;32.72;;;12.40;;
71462;SDS011;59266;52.608;13.260;2024-03-06T01:48:32;29.98;;;11.38;;
71462;SDS011;59266;52.608;13.260;2024-03-06T01:51:01;31.15;;;12.50;;
71462;SDS011;59266;52.608;13.260;2024-03-06T01:53:29;32.35;;;12.20;;
71462;SDS011;59266;52.608;13.260;2024-03-06T01:55:57;31.35;;;12.80;;
71462;SDS011;59266;52.608;13.260;2024-03-06T01:58:24;33.45;;;12.30;;
71462;SDS011;59266;52.608;13.260;2024-03-06T02:00:51;35.33;;;11.25;;
71462;SDS011;59266;52.608;13.260;2024-03-06T02:03:18;29.00;;;10.10;;
71462;SDS011;59266;52.608;13.260;2024-03-06T02:05:48;27.77;;;10.88;;
71462;SDS011;59266;52.608;13.260;2024-03-06T02:08:16;28.50;;;11.00;;
71462;SDS011;59266;52.608;13.260;2024-03-06T02:10:44;30.83;;;10.95;;
71462;SDS011;59266;52.608;13.260;2024-03-06T02:13:12;29.73;;;11.27;;
71462;SDS011;59266;52.608;13.260;2024-03-06T02:15:39;28.77;;;10.73;;
71462;SDS011;59266;52.608;13.260;2024-03-06T02:18:06;27.52;;;11.20;;
71462;SDS011;59266;52.608;13.260;2024-03-06T02:20:37;35.22;;;12.07;;
71462;SDS011;59266;52.608;13.260;2024-03-06T02:23:04;25.67;;;10.68;;
71462;SDS011;59266;52.608;13.260;2024-03-06T02:25:31;28.33;;;11.10;;
71462;SDS011;59266;52.608;13.260;2024-03-06T02:27:57;28.83;;;12.25;;
71462;SDS011;59266;52.608;13.260;2024-03-06T02:30:26;29.70;;;11.35;;
71462;SDS011;59266;52.608;13.260;2024-03-06T02:32:53;31.48;;;11.25;;
71462;SDS011;59266;52.608;13.260;2024-03-06T02:35:19;32.70;;;11.10;;
71462;SDS011;59266;52.608;13.260;2024-03-06T02:37:46;25.52;;;10.00;;
71462;SDS011;59266;52.608;13.260;2024-03-06T02:40:13;27.33;;;10.60;;
71462;SDS011;59266;52.608;13.260;2024-03-06T02:42:40;30.77;;;11.00;;
71462;SDS011;59266;52.608;13.260;2024-03-06T02:45:06;32.05;;;10.60;;
71462;SDS011;59266;52.608;13.260;2024-03-06T02:47:34;30.13;;;11.60;;
71462;SDS011;59266;52.608;13.260;2024-03-06T02:50:01;28.42;;;9.73;;
71462;SDS011;59266;52.608;13.260;2024-03-06T02:52:28;24.42;;;9.73;;
71462;SDS011;59266;52.608;13.260;2024-03-06T02:54:54;32.45;;;10.77;;
71462;SDS011;59266;52.608;13.260;2024-03-06T02:57:21;32.15;;;11.60;;
71462;SDS011;59266;52.608;13.260;2024-03-06T02:59:48;26.92;;;10.55;;
71462;SDS011;59266;52.608;13.260;2024-03-06T03:02:15;23.80;;;9.80;;
71462;SDS011;59266;52.608;13.260;2024-03-06T03:04:41;26.08;;;9.95;;
71462;SDS011;59266;52.608;13.260;2024-03-06T03:07:09;28.77;;;10.65;;
71462;SDS011;59266;52.608;13.260;2024-03-06T03:09:36;29.67;;;11.10;;
71462;SDS011;59266;52.608;13.260;2024-03-06T03:12:05;32.97;;;10.85;;
71462;SDS011;59266;52.608;13.260;2024-03-06T03:14:32;25.65;;;10.55;;
71462;SDS011;59266;52.608;13.260;2024-03-06T03:17:00;31.88;;;11.30;;
71462;SDS011;59266;52.608;13.260;2024-03-06T03:19:26;27.65;;;10.15;;
71462;SDS011;59266;52.608;13.260;2024-03-06T03:21:53;27.17;;;10.77;;
71462;SDS011;59266;52.608;13.260;2024-03-06T03:24:20;32.50;;;11.10;;
71462;SDS011;59266;52.608;13.260;2024-03-06T03:26:48;30.02;;;10.15;;
71462;SDS011;59266;52.608;13.260;2024-03-06T03:29:14;28.73;;;10.55;;
71462;SDS011;59266;52.608;13.260;2024-03-06T03:31:41;25.05;;;9.90;;
71462;SDS011;59266;52.608;13.260;2024-03-06T03:34:09;28.58;;;9.75;;
71462;SDS011;59266;52.608;13.260;2024-03-06T03:36:40;26.77;;;10.70;;
71462;SDS011;59266;52.608;13.260;2024-03-06T03:39:10;25.60;;;9.80;;
71462;SDS011;59266;52.608;13.260;2024-03-06T03:44:13;28.38;;;10.40;;
71462;SDS011;59266;52.608;13.260;2024-03-06T03:46:40;24.83;;;9.23;;
71462;SDS011;59266;52.608;13.260;2024-03-06T03:49:07;27.15;;;10.38;;
71462;SDS011;59266;52.608;13.260;2024-03-06T03:51:40;28.20;;;10.20;;
71462;SDS011;59266;52.608;13.260;2024-03-06T03:54:07;26.30;;;10.20;;
71462;SDS011;59266;52.608;13.260;2024-03-06T03:56:33;29.60;;;10.55;;
71462;SDS011;59266;52.608;13.260;2024-03-06T03:59:01;28.98;;;10.10;;
71462;SDS011;59266;52.608;13.260;2024-03-06T04:01:28;25.98;;;10.05;;
71462;SDS011;59266;52.608;13.260;2024-03-06T04:03:54;28.02;;;10.50;;
71462;SDS011;59266;52.608;13.260;2024-03-06T04:06:21;26.42;;;10.18;;
71462;SDS011;59266;52.608;13.260;2024-03-06T04:08:47;31.67;;;10.77;;
71462;SDS011;59266;52.608;13.260;2024-03-06T04:11:15;27.65;;;10.60;;
71462;SDS011;59266;52.608;13.260;2024-03-06T04:13:42;24.55;;;9.35;;
71462;SDS011;59266;52.608;13.260;2024-03-06T04:16:08;29.25;;;11.05;;
71462;SDS011;59266;52.608;13.260;2024-03-06T04:18:35;25.15;;;10.68;;
71462;SDS011;59266;52.608;13.260;2024-03-06T04:21:05;31.23;;;11.25;;
71462;SDS011;59266;52.608;13.260;2024-03-06T04:23:32;26.65;;;10.05;;
71462;SDS011;59266;52.608;13.260;2024-03-06T04:26:01;34.30;;;11.38;;
71462;SDS011;59266;52.608;13.260;2024-03-06T04:28:28;30.45;;;10.63;;
71462;SDS011;59266;52.608;13.260;2024-03-06T04:30:55;25.20;;;9.82;;
71462;SDS011;59266;52.608;13.260;2024-03-06T04:33:22;24.45;;;9.98;;
71462;SDS011;59266;52.608;13.260;2024-03-06T04:35:48;26.15;;;9.88;;
71462;SDS011;59266;52.608;13.260;2024-03-06T04:38:15;28.75;;;9.85;;
71462;SDS011;59266;52.608;13.260;2024-03-06T04:40:42;27.58;;;10.50;;
71462;SDS011;59266;52.608;13.260;2024-03-06T04:43:09;25.35;;;10.10;;
71462;SDS011;59266;52.608;13.260;2024-03-06T04:45:35;24.88;;;9.82;;
71462;SDS011;59266;52.608;13.260;2024-03-06T04:48:02;28.40;;;10.35;;
71462;SDS011;59266;52.608;13.260;2024-03-06T04:50:30;26.20;;;10.93;;
71462;SDS011;59266;52.608;13.260;2024-03-06T04:52:56;33.05;;;10.90;;
71462;SDS011;59266;52.608;13.260;2024-03-06T04:55:23;24.67;;;9.10;;
71462;SDS011;59266;52.608;13.260;2024-03-06T04:57:51;25.60;;;10.30;;
71462;SDS011;59266;52.608;13.260;2024-03-06T05:00:19;23.67;;;9.23;;
71462;SDS011;59266;52.608;13.260;2024-03-06T05:02:46;28.48;;;10.70;;
71462;SDS011;59266;52.608;13.260;2024-03-06T05:05:33;27.60;;;9.30;;
71462;SDS011;59266;52.608;13.260;2024-03-06T05:08:16;25.70;;;9.77;;
71462;SDS011;59266;52.608;13.260;2024-03-06T05:11:00;24.10;;;9.63;;
71462;SDS011;59266;52.608;13.260;2024-03-06T05:13:45;26.50;;;9.65;;
71462;SDS011;59266;52.608;13.260;2024-03-06T05:16:29;24.10;;;9.13;;
71462;SDS011;59266;52.608;13.260;2024-03-06T05:19:13;29.58;;;9.68;;
71462;SDS011;59266;52.608;13.260;2024-03-06T05:21:58;27.92;;;10.35;;
71462;SDS011;59266;52.608;13.260;2024-03-06T05:24:42;26.08;;;9.32;;
71462;SDS011;59266;52.608;13.260;2024-03-06T05:27:27;28.42;;;8.73;;
71462;SDS011;59266;52.608;13.260;2024-03-06T05:30:14;27.10;;;9.70;;
71462;SDS011;59266;52.608;13.260;2024-03-06T05:32:58;23.75;;;9.13;;
71462;SDS011;59266;52.608;13.260;2024-03-06T05:35:42;24.00;;;9.43;;
71462;SDS011;59266;52.608;13.260;2024-03-06T05:38:26;25.73;;;9.48;;
71462;SDS011;59266;52.608;13.260;2024-03-06T05:41:10;26.13;;;9.68;;
71462;SDS011;59266;52.608;13.260;2024-03-06T05:43:55;25.48;;;9.90;;
71462;SDS011;59266;52.608;13.260;2024-03-06T05:46:40;28.67;;;10.30;;
71462;SDS011;59266;52.608;13.260;2024-03-06T05:49:24;26.95;;;9.55;;
71462;SDS011;59266;52.608;13.260;2024-03-06T05:52:08;25.67;;;9.73;;
71462;SDS011;59266;52.608;13.260;2024-03-06T05:54:52;27.20;;;10.07;;
71462;SDS011;59266;52.608;13.260;2024-03-06T05:57:36;28.67;;;9.80;;
71462;SDS011;59266;52.608;13.260;2024-03-06T06:00:20;27.08;;;9.52;;
71462;SDS011;59266;52.608;13.260;2024-03-06T06:02:48;27.17;;;9.88;;
71462;SDS011;59266;52.608;13.260;2024-03-06T06:05:15;27.58;;;10.23;;
71462;SDS011;59266;52.608;13.260;2024-03-06T06:07:49;30.55;;;11.15;;
71462;SDS011;59266;52.608;13.260;2024-03-06T06:10:17;32.20;;;11.27;;
71462;SDS011;59266;52.608;13.260;2024-03-06T06:12:47;31.58;;;10.98;;
71462;SDS011;59266;52.608;13.260;2024-03-06T06:15:14;44.58;;;11.60;;
71462;SDS011;59266;52.608;13.260;2024-03-06T06:17:41;36.58;;;11.98;;
71462;SDS011;59266;52.608;13.260;2024-03-06T06:20:12;33.10;;;10.85;;
71462;SDS011;59266;52.608;13.260;2024-03-06T06:22:43;39.08;;;12.57;;
71462;SDS011;59266;52.608;13.260;2024-03-06T06:25:09;45.47;;;13.30;;
71462;SDS011;59266;52.608;13.260;2024-03-06T06:27:37;35.70;;;13.57;;
71462;SDS011;59266;52.608;13.260;2024-03-06T06:30:05;40.47;;;12.95;;
71462;SDS011;59266;52.608;13.260;2024-03-06T06:32:33;42.28;;;13.80;;
71462;SDS011;59266;52.608;13.260;2024-03-06T06:35:01;47.35;;;14.48;;
71462;SDS011;59266;52.608;13.260;2024-03-06T06:37:28;37.80;;;15.00;;
71462;SDS011;59266;52.608;13.260;2024-03-06T06:39:54;42.38;;;14.85;;
71462;SDS011;59266;52.608;13.260;2024-03-06T06:42:21;37.63;;;13.10;;
71462;SDS011;59266;52.608;13.260;2024-03-06T06:44:50;36.33;;;13.38;;
71462;SDS011;59266;52.608;13.260;2024-03-06T06:47:17;37.85;;;15.02;;
71462;SDS011;59266;52.608;13.260;2024-03-06T06:49:43;38.78;;;14.00;;
71462;SDS011;59266;52.608;13.260;2024-03-06T06:52:11;39.38;;;15.48;;
71462;SDS011;59266;52.608;13.260;2024-03-06T06:54:37;44.85;;;15.65;;
71462;SDS011;59266;52.608;13.260;2024-03-06T06:57:04;34.80;;;14.00;;
71462;SDS011;59266;52.608;13.260;2024-03-06T06:59:30;36.45;;;14.27;;
71462;SDS011;59266;52.608;13.260;2024-03-06T07:01:57;38.88;;;13.82;;
71462;SDS011;59266;52.608;13.260;2024-03-06T07:04:24;31.20;;;13.25;;
71462;SDS011;59266;52.608;13.260;2024-03-06T07:06:51;27.95;;;11.65;;
71462;SDS011;59266;52.608;13.260;2024-03-06T07:09:18;26.77;;;11.43;;
71462;SDS011;59266;52.608;13.260;2024-03-06T07:11:46;23.98;;;10.90;;
71462;SDS011;59266;52.608;13.260;2024-03-06T07:14:12;26.50;;;10.85;;
71462;SDS011;59266;52.608;13.260;2024-03-06T07:16:43;27.77;;;11.68;;
71462;SDS011;59266;52.608;13.260;2024-03-06T07:19:11;24.52;;;11.23;;
71462;SDS011;59266;52.608;13.260;2024-03-06T07:21:40;23.15;;;9.82;;
71462;SDS011;59266;52.608;13.260;2024-03-06T07:24:07;22.45;;;9.93;;
71462;SDS011;59266;52.608;13.260;2024-03-06T07:26:37;20.33;;;9.57;;
71462;SDS011;59266;52.608;13.260;2024-03-06T07:29:04;20.17;;;9.35;;
71462;SDS011;59266;52.608;13.260;2024-03-06T07:31:32;19.02;;;9.77;;
71462;SDS011;59266;52.608;13.260;2024-03-06T07:33:59;19.40;;;9.52;;
71462;SDS011;59266;52.608;13.260;2024-03-06T07:36:26;18.05;;;8.27;;
71462;SDS011;59266;52.608;13.260;2024-03-06T07:38:53;17.73;;;8.98;;
71462;SDS011;59266;52.608;13.260;2024-03-06T07:41:19;18.67;;;9.60;;
71462;SDS011;59266;52.608;13.260;2024-03-06T07:43:46;23.30;;;8.82;;
71462;SDS011;59266;52.608;13.260;2024-03-06T07:46:13;17.40;;;8.65;;
71462;SDS011;59266;52.608;13.260;2024-03-06T07:48:42;23.95;;;10.90;;
71462;SDS011;59266;52.608;13.260;2024-03-06T07:51:14;19.85;;;9.45;;
71462;SDS011;59266;52.608;13.260;2024-03-06T07:53:44;17.58;;;9.05;;
71462;SDS011;59266;52.608;13.260;2024-03-06T07:56:15;19.15;;;9.02;;
71462;SDS011;59266;52.608;13.260;2024-03-06T07:58:42;17.35;;;9.07;;
71462;SDS011;59266;52.608;13.260;2024-03-06T08:01:12;19.23;;;10.93;;
71462;SDS011;59266;52.608;13.260;2024-03-06T08:03:39;18.35;;;10.20;;
71462;SDS011;59266;52.608;13.260;2024-03-06T08:06:09;16.67;;;10.00;;
71462;SDS011;59266;52.608;13.260;2024-03-06T08:08:37;15.93;;;9.57;;
71462;SDS011;59266;52.608;13.260;2024-03-06T08:11:07;17.58;;;9.77;;
71462;SDS011;59266;52.608;13.260;2024-03-06T08:13:39;16.58;;;9.50;;
71462;SDS011;59266;52.608;13.260;2024-03-06T08:16:09;18.45;;;10.57;;
71462;SDS011;59266;52.608;13.260;2024-03-06T08:18:36;16.90;;;9.95;;
71462;SDS011;59266;52.608;13.260;2024-03-06T08:21:03;16.38;;;9.68;;
71462;SDS011;59266;52.608;13.260;2024-03-06T08:23:31;16.67;;;10.13;;
71462;SDS011;59266;52.608;13.260;2024-03-06T08:25:59;18.25;;;10.07;;
71462;SDS011;59266;52.608;13.260;2024-03-06T08:28:26;16.20;;;10.75;;
71462;SDS011;59266;52.608;13.260;2024-03-06T08:30:53;17.70;;;10.00;;
71462;SDS011;59266;52.608;13.260;2024-03-06T08:33:23;14.75;;;9.35;;
71462;SDS011;59266;52.608;13.260;2024-03-06T08:35:51;14.75;;;8.60;;
71462;SDS011;59266;52.608;13.260;2024-03-06T08:38:18;13.82;;;9.10;;
71462;SDS011;59266;52.608;13.260;2024-03-06T08:40:44;13.13;;;8.20;;
71462;SDS011;59266;52.608;13.260;2024-03-06T08:43:14;13.18;;;8.50;;
71462;SDS011;59266;52.608;13.260;2024-03-06T08:45:42;12.55;;;7.78;;
71462;SDS011;59266;52.608;13.260;2024-03-06T08:48:09;13.15;;;7.40;;
71462;SDS011;59266;52.608;13.260;2024-03-06T08:50:41;13.82;;;8.55;;
71462;SDS011;59266;52.608;13.260;2024-03-06T08:53:08;13.40;;;8.25;;
71462;SDS011;59266;52.608;13.260;2024-03-06T08:55:35;15.48;;;8.15;;
71462;SDS011;59266;52.608;13.260;2024-03-06T08:58:02;14.02;;;8.32;;
71462;SDS011;59266;52.608;13.260;2024-03-06T09:00:29;13.02;;;8.35;;
71462;SDS011;59266;52.608;13.260;2024-03-06T09:02:56;15.65;;;9.25;;
71462;SDS011;59266;52.608;13.260;2024-03-06T09:05:22;13.60;;;8.52;;
71462;SDS011;59266;52.608;13.260;2024-03-06T09:07:49;14.73;;;8.52;;
71462;SDS011;59266;52.608;13.260;2024-03-06T09:10:16;14.35;;;8.40;;
71462;SDS011;59266;52.608;13.260;2024-03-06T09:12:45;17.70;;;8.63;;
71462;SDS011;59266;52.608;13.260;2024-03-06T09:15:12;16.73;;;8.32;;
71462;SDS011;59266;52.608;13.260;2024-03-06T09:17:40;16.17;;;8.27;;
71462;SDS011;59266;52.608;13.260;2024-03-06T09:20:09;16.58;;;8.60;;
71462;SDS011;59266;52.608;13.260;2024-03-06T09:22:38;14.57;;;8.15;;
71462;SDS011;59266;52.608;13.260;2024-03-06T09:25:06;16.83;;;8.95;;
71462;SDS011;59266;52.608;13.260;2024-03-06T09:27:33;15.25;;;8.48;;
71462;SDS011;59266;52.608;13.260;2024-03-06T09:30:01;20.35;;;9.73;;
71462;SDS011;59266;52.608;13.260;2024-03-06T09:32:29;14.55;;;8.10;;
71462;SDS011;59266;52.608;13.260;2024-03-06T09:34:58;11.85;;;6.18;;
71462;SDS011;59266;52.608;13.260;2024-03-06T09:37:25;14.35;;;7.25;;
71462;SDS011;59266;52.608;13.260;2024-03-06T09:39:51;11.82;;;5.95;;
71462;SDS011;59266;52.608;13.260;2024-03-06T09:42:18;12.93;;;6.45;;
71462;SDS011;59266;52.608;13.260;2024-03-06T09:44:45;14.85;;;6.72;;
71462;SDS011;59266;52.608;13.260;2024-03-06T09:47:13;13.05;;;6.53;;
71462;SDS011;59266;52.608;13.260;2024-03-06T09:49:43;15.23;;;6.80;;
71462;SDS011;59266;52.608;13.260;2024-03-06T09:52:10;13.73;;;6.28;;
71462;SDS011;59266;52.608;13.260;2024-03-06T09:54:37;12.95;;;6.68;;
71462;SDS011;59266;52.608;13.260;2024-03-06T09:57:05;14.35;;;6.90;;
71462;SDS011;59266;52.608;13.260;2024-03-06T09:59:32;14.02;;;6.45;;
71462;SDS011;59266;52.608;13.260;2024-03-06T10:02:00;15.32;;;6.70;;
71462;SDS011;59266;52.608;13.260;2024-03-06T10:04:32;14.07;;;6.97;;
71462;SDS011;59266;52.608;13.260;2024-03-06T10:07:01;13.10;;;6.72;;
71462;SDS011;59266;52.608;13.260;2024-03-06T10:09:29;14.95;;;7.85;;
71462;SDS011;59266;52.608;13.260;2024-03-06T10:11:57;16.55;;;8.00;;
71462;SDS011;59266;52.608;13.260;2024-03-06T10:14:27;16.30;;;9.25;;
71462;SDS011;59266;52.608;13.260;2024-03-06T10:16:55;14.45;;;7.70;;
71462;SDS011;59266;52.608;13.260;2024-03-06T10:19:24;15.82;;;8.45;;
71462;SDS011;59266;52.608;13.260;2024-03-06T10:21:57;14.10;;;8.10;;
71462;SDS011;59266;52.608;13.260;2024-03-06T10:24:25;16.90;;;8.13;;
71462;SDS011;59266;52.608;13.260;2024-03-06T10:26:57;16.08;;;8.68;;
71462;SDS011;59266;52.608;13.260;2024-03-06T10:29:26;16.08;;;8.82;;
71462;SDS011;59266;52.608;13.260;2024-03-06T10:31:55;15.68;;;8.68;;
71462;SDS011;59266;52.608;13.260;2024-03-06T10:34:24;16.30;;;8.75;;
71462;SDS011;59266;52.608;13.260;2024-03-06T10:36:55;17.63;;;9.82;;
71462;SDS011;59266;52.608;13.260;2024-03-06T10:39:25;17.60;;;9.55;;
71462;SDS011;59266;52.608;13.260;2024-03-06T10:41:56;19.00;;;10.43;;
71462;SDS011;59266;52.608;13.260;2024-03-06T10:44:26;20.08;;;9.93;;
71462;SDS011;59266;52.608;13.260;2024-03-06T10:47:05;17.73;;;9.57;;
71462;SDS011;59266;52.608;13.260;2024-03-06T10:49:32;17.65;;;9.60;;
71462;SDS011;59266;52.608;13.260;2024-03-06T10:52:01;25.60;;;10.25;;
71462;SDS011;59266;52.608;13.260;2024-03-06T10:54:32;19.67;;;10.02;;
71462;SDS011;59266;52.608;13.260;2024-03-06T10:57:03;20.80;;;10.38;;
71462;SDS011;59266;52.608;13.260;2024-03-06T10:59:30;20.33;;;10.65;;
71462;SDS011;59266;52.608;13.260;2024-03-06T11:01:58;17.92;;;9.73;;
71462;SDS011;59266;52.608;13.260;2024-03-06T11:04:29;22.02;;;10.82;;
71462;SDS011;59266;52.608;13.260;2024-03-06T11:07:00;18.17;;;9.85;;
71462;SDS011;59266;52.608;13.260;2024-03-06T11:09:29;21.77;;;11.45;;
71462;SDS011;59266;52.608;13.260;2024-03-06T11:12:01;17.73;;;9.82;;
71462;SDS011;59266;52.608;13.260;2024-03-06T11:14:30;20.90;;;11.20;;
71462;SDS011;59266;52.608;13.260;2024-03-06T11:16:58;20.60;;;11.60;;
71462;SDS011;59266;52.608;13.260;2024-03-06T11:19:27;21.27;;;11.20;;
71462;SDS011;59266;52.608;13.260;2024-03-06T11:21:57;19.42;;;10.88;;
71462;SDS011;59266;52.608;13.260;2024-03-06T11:24:34;27.05;;;11.88;;
71462;SDS011;59266;52.608;13.260;2024-03-06T11:27:01;21.20;;;11.25;;
71462;SDS011;59266;52.608;13.260;2024-03-06T11:29:29;19.85;;;10.80;;
71462;SDS011;59266;52.608;13.260;2024-03-06T11:32:16;18.60;;;10.48;;
71462;SDS011;59266;52.608;13.260;2024-03-06T11:34:43;18.92;;;8.82;;
71462;SDS011;59266;52.608;13.260;2024-03-06T11:37:09;16.70;;;9.40;;
71462;SDS011;59266;52.608;13.260;2024-03-06T11:39:37;16.55;;;9.27;;
71462;SDS011;59266;52.608;13.260;2024-03-06T11:42:05;17.15;;;9.32;;
71462;SDS011;59266;52.608;13.260;2024-03-06T11:44:35;17.15;;;10.02;;
71462;SDS011;59266;52.608;13.260;2024-03-06T11:47:07;16.92;;;9.65;;
71462;SDS011;59266;52.608;13.260;2024-03-06T11:49:35;18.50;;;9.65;;
71462;SDS011;59266;52.608;13.260;2024-03-06T11:52:06;18.75;;;9.40;;
71462;SDS011;59266;52.608;13.260;2024-03-06T11:54:37;15.82;;;8.45;;
71462;SDS011;59266;52.608;13.260;2024-03-06T11:57:05;16.38;;;9.35;;
71462;SDS011;59266;52.608;13.260;2024-03-06T11:59:33;15.20;;;7.65;;
71462;SDS011;59266;52.608;13.260;2024-03-06T12:02:08;15.98;;;9.02;;
71462;SDS011;59266;52.608;13.260;2024-03-06T12:04:37;16.60;;;9.20;;
71462;SDS011;59266;52.608;13.260;2024-03-06T12:07:05;15.80;;;8.75;;
71462;SDS011;59266;52.608;13.260;2024-03-06T12:09:33;16.40;;;9.20;;
71462;SDS011;59266;52.608;13.260;2024-03-06T12:12:04;16.98;;;9.23;;
71462;SDS011;59266;52.608;13.260;2024-03-06T12:14:34;14.45;;;7.90;;
71462;SDS011;59266;52.608;13.260;2024-03-06T12:17:02;16.65;;;7.38;;
71462;SDS011;59266;52.608;13.260;2024-03-06T12:19:32;14.60;;;7.85;;
71462;SDS011;59266;52.608;13.260;2024-03-06T12:21:59;14.15;;;7.80;;
71462;SDS011;59266;52.608;13.260;2024-03-06T12:24:30;14.93;;;8.13;;
71462;SDS011;59266;52.608;13.260;2024-03-06T12:26:59;13.65;;;7.18;;
71462;SDS011;59266;52.608;13.260;2024-03-06T12:29:33;13.93;;;7.35;;
71462;SDS011;59266;52.608;13.260;2024-03-06T12:32:04;15.25;;;7.40;;
71462;SDS011;59266;52.608;13.260;2024-03-06T12:34:38;15.98;;;8.25;;
71462;SDS011;59266;52.608;13.260;2024-03-06T12:37:11;17.05;;;9.20;;
71462;SDS011;59266;52.608;13.260;2024-03-06T12:39:38;16.98;;;8.73;;
71462;SDS011;59266;52.608;13.260;2024-03-06T12:42:09;16.25;;;8.68;;
71462;SDS011;59266;52.608;13.260;2024-03-06T12:44:35;19.05;;;8.82;;
71462;SDS011;59266;52.608;13.260;2024-03-06T12:47:02;18.40;;;8.80;;
71462;SDS011;59266;52.608;13.260;2024-03-06T12:49:29;18.65;;;9.50;;
71462;SDS011;59266;52.608;13.260;2024-03-06T12:51:57;20.50;;;9.48;;
71462;SDS011;59266;52.608;13.260;2024-03-06T12:54:27;19.92;;;9.18;;
71462;SDS011;59266;52.608;13.260;2024-03-06T12:56:54;21.58;;;9.95;;
71462;SDS011;59266;52.608;13.260;2024-03-06T12:59:21;21.15;;;9.65;;
71462;SDS011;59266;52.608;13.260;2024-03-06T13:01:48;17.98;;;9.60;;
71462;SDS011;59266;52.608;13.260;2024-03-06T13:04:14;20.83;;;9.20;;
71462;SDS011;59266;52.608;13.260;2024-03-06T13:06:41;19.25;;;8.75;;
71462;SDS011;59266;52.608;13.260;2024-03-06T13:09:08;21.40;;;8.95;;
71462;SDS011;59266;52.608;13.260;2024-03-06T13:11:40;22.67;;;9.50;;
71462;SDS011;59266;52.608;13.260;2024-03-06T13:14:08;20.63;;;9.40;;
71462;SDS011;59266;52.608;13.260;2024-03-06T13:16:39;19.00;;;8.90;;
71462;SDS011;59266;52.608;13.260;2024-03-06T13:19:06;21.38;;;9.13;;
71462;SDS011;59266;52.608;13.260;2024-03-06T13:21:34;19.95;;;8.80;;
71462;SDS011;59266;52.608;13.260;2024-03-06T13:24:01;21.70;;;10.23;;
71462;SDS011;59266;52.608;13.260;2024-03-06T13:26:27;22.92;;;10.20;;
71462;SDS011;59266;52.608;13.260;2024-03-06T13:28:54;20.20;;;9.30;;
71462;SDS011;59266;52.608;13.260;2024-03-06T13:31:21;26.58;;;10.02;;
71462;SDS011;59266;52.608;13.260;2024-03-06T13:33:47;22.33;;;9.25;;
71462;SDS011;59266;52.608;13.260;2024-03-06T13:36:15;25.02;;;10.05;;
71462;SDS011;59266;52.608;13.260;2024-03-06T13:38:43;23.63;;;10.13;;
71462;SDS011;59266;52.608;13.260;2024-03-06T13:41:10;26.92;;;10.57;;
71462;SDS011;59266;52.608;13.260;2024-03-06T13:43:36;21.38;;;9.48;;
71462;SDS011;59266;52.608;13.260;2024-03-06T13:46:03;20.85;;;8.93;;
71462;SDS011;59266;52.608;13.260;2024-03-06T13:48:30;19.52;;;8.68;;
71462;SDS011;59266;52.608;13.260;2024-03-06T13:50:57;24.17;;;9.07;;
71462;SDS011;59266;52.608;13.260;2024-03-06T13:53:24;24.30;;;9.80;;
71462;SDS011;59266;52.608;13.260;2024-03-06T13:55:51;23.52;;;10.07;;
71462;SDS011;59266;52.608;13.260;2024-03-06T13:58:18;27.02;;;10.88;;
71462;SDS011;59266;52.608;13.260;2024-03-06T14:00:45;23.48;;;9.85;;
71462;SDS011;59266;52.608;13.260;2024-03-06T14:03:11;25.70;;;10.10;;
71462;SDS011;59266;52.608;13.260;2024-03-06T14:05:41;23.77;;;10.45;;
71462;SDS011;59266;52.608;13.260;2024-03-06T14:08:07;24.40;;;10.32;;
71462;SDS011;59266;52.608;13.260;2024-03-06T14:10:39;22.13;;;9.60;;
71462;SDS011;59266;52.608;13.260;2024-03-06T14:13:06;20.13;;;8.77;;
71462;SDS011;59266;52.608;13.260;2024-03-06T14:15:34;22.25;;;8.55;;
71462;SDS011;59266;52.608;13.260;2024-03-06T14:18:04;22.95;;;8.52;;
71462;SDS011;59266;52.608;13.260;2024-03-06T14:20:33;23.98;;;9.38;;
71462;SDS011;59266;52.608;13.260;2024-03-06T14:22:59;22.25;;;8.80;;
71462;SDS011;59266;52.608;13.260;2024-03-06T14:25:26;21.08;;;8.93;;
71462;SDS011;59266;52.608;13.260;2024-03-06T14:27:53;24.58;;;9.73;;